sensor_id;sensor_type;location;lat;lon;timestamp;temperature;humidity
63771;DHT22;60282;43.862;18.430;2022-10-16T00:00:19;8.70;99.90
63771;DHT22;60282;43.862;18.430;2022-10-16T00:03:08;8.70;99.90
63771;DHT22;60282;43.862;18.430;2022-10-16T00:05:40;8.70;99.90
63771;DHT22;60282;43.862;18.430;2022-10-16T00:08:28;8.70;99.90
63771;DHT22;60282;43.862;18.430;2022-10-16T00:11:25;8.60;99.90
63771;DHT22;60282;43.862;18.430;2022-10-16T00:13:54;8.60;99.90
63771;DHT22;60282;43.862;18.430;2022-10-16T00:16:21;8.50;99.90
63771;DHT22;60282;43.862;18.430;2022-10-16T00:18:49;8.50;99.90
63771;DHT22;60282;43.862;18.430;2022-10-16T00:21:19;8.40;99.90
63771;DHT22;60282;43.862;18.430;2022-10-16T00:23:45;11.50;99.90
63771;DHT22;60282;43.862;18.430;2022-10-16T00:26:37;8.40;99.90
63771;DHT22;60282;43.862;18.430;2022-10-16T00:29:43;8.30;99.90
63771;DHT22;60282;43.862;18.430;2022-10-16T00:32:12;8.40;99.90
63771;DHT22;60282;43.862;18.430;2022-10-16T00:34:46;8.30;99.90
63771;DHT22;60282;43.862;18.430;2022-10-16T00:37:12;8.30;99.90
63771;DHT22;60282;43.862;18.430;2022-10-16T00:40:06;8.40;99.90
63771;DHT22;60282;43.862;18.430;2022-10-16T00:43:49;8.30;99.90
63771;DHT22;60282;43.862;18.430;2022-10-16T00:48:43;8.30;99.90
63771;DHT22;60282;43.862;18.430;2022-10-16T00:51:19;8.30;99.90
63771;DHT22;60282;43.862;18.430;2022-10-16T00:53:55;8.30;99.90
63771;DHT22;60282;43.862;18.430;2022-10-16T00:56:21;8.30;99.90
63771;DHT22;60282;43.862;18.430;2022-10-16T00:58:47;8.30;99.90
63771;DHT22;60282;43.862;18.430;2022-10-16T01:03:41;8.30;99.90
63771;DHT22;60282;43.862;18.430;2022-10-16T01:06:25;8.30;99.90
63771;DHT22;60282;43.862;18.430;2022-10-16T01:09:09;8.30;99.90
63771;DHT22;60282;43.862;18.430;2022-10-16T01:12:04;8.30;99.90
63771;DHT22;60282;43.862;18.430;2022-10-16T01:17:58;8.20;99.90
63771;DHT22;60282;43.862;18.430;2022-10-16T01:20:44;8.20;99.90
63771;DHT22;60282;43.862;18.430;2022-10-16T01:28:39;8.20;99.90
63771;DHT22;60282;43.862;18.430;2022-10-16T01:31:07;8.20;99.90
63771;DHT22;60282;43.862;18.430;2022-10-16T01:33:43;8.10;99.90
63771;DHT22;60282;43.862;18.430;2022-10-16T01:36:18;8.00;99.90
63771;DHT22;60282;43.862;18.430;2022-10-16T01:38:50;8.10;99.90
63771;DHT22;60282;43.862;18.430;2022-10-16T01:41:44;8.00;99.90
63771;DHT22;60282;43.862;18.430;2022-10-16T01:44:22;8.00;99.90
63771;DHT22;60282;43.862;18.430;2022-10-16T01:47:07;7.90;99.90
63771;DHT22;60282;43.862;18.430;2022-10-16T01:49:59;8.00;99.90
63771;DHT22;60282;43.862;18.430;2022-10-16T01:52:49;8.00;99.90
63771;DHT22;60282;43.862;18.430;2022-10-16T01:55:44;8.00;99.90
63771;DHT22;60282;43.862;18.430;2022-10-16T01:58:13;8.00;99.90
63771;DHT22;60282;43.862;18.430;2022-10-16T02:00:42;8.00;99.90
63771;DHT22;60282;43.862;18.430;2022-10-16T02:03:10;8.10;99.90
63771;DHT22;60282;43.862;18.430;2022-10-16T02:08:06;8.00;99.90
63771;DHT22;60282;43.862;18.430;2022-10-16T02:14:06;7.20;99.90
63771;DHT22;60282;43.862;18.430;2022-10-16T02:16:41;8.00;99.90
63771;DHT22;60282;43.862;18.430;2022-10-16T02:19:07;8.00;99.90
63771;DHT22;60282;43.862;18.430;2022-10-16T02:21:42;7.90;99.90
63771;DHT22;60282;43.862;18.430;2022-10-16T02:24:45;7.90;99.90
63771;DHT22;60282;43.862;18.430;2022-10-16T02:27:48;7.90;99.90
63771;DHT22;60282;43.862;18.430;2022-10-16T02:30:46;8.30;99.90
63771;DHT22;60282;43.862;18.430;2022-10-16T02:33:21;7.90;99.90
63771;DHT22;60282;43.862;18.430;2022-10-16T02:35:54;7.90;99.90
63771;DHT22;60282;43.862;18.430;2022-10-16T02:38:21;7.90;99.90
63771;DHT22;60282;43.862;18.430;2022-10-16T02:40:48;7.90;99.90
63771;DHT22;60282;43.862;18.430;2022-10-16T02:43:14;7.90;99.90
63771;DHT22;60282;43.862;18.430;2022-10-16T02:45:39;7.50;99.90
63771;DHT22;60282;43.862;18.430;2022-10-16T02:48:06;7.90;99.90
63771;DHT22;60282;43.862;18.430;2022-10-16T02:53:11;7.90;99.90
63771;DHT22;60282;43.862;18.430;2022-10-16T02:55:37;8.00;99.90
63771;DHT22;60282;43.862;18.430;2022-10-16T02:58:03;7.90;99.90
63771;DHT22;60282;43.862;18.430;2022-10-16T03:00:29;7.90;99.90
63771;DHT22;60282;43.862;18.430;2022-10-16T03:03:18;7.90;99.90
63771;DHT22;60282;43.862;18.430;2022-10-16T03:06:03;7.70;99.90
63771;DHT22;60282;43.862;18.430;2022-10-16T03:08:55;7.60;99.90
63771;DHT22;60282;43.862;18.430;2022-10-16T03:11:20;7.60;99.90
63771;DHT22;60282;43.862;18.430;2022-10-16T03:13:46;7.60;99.90
63771;DHT22;60282;43.862;18.430;2022-10-16T03:16:21;7.50;99.90
63771;DHT22;60282;43.862;18.430;2022-10-16T03:19:07;7.50;99.90
63771;DHT22;60282;43.862;18.430;2022-10-16T03:21:33;7.50;99.90
63771;DHT22;60282;43.862;18.430;2022-10-16T03:24:02;7.40;99.90
63771;DHT22;60282;43.862;18.430;2022-10-16T03:26:34;7.50;99.90
63771;DHT22;60282;43.862;18.430;2022-10-16T03:29:06;7.50;99.90
63771;DHT22;60282;43.862;18.430;2022-10-16T03:32:02;7.50;99.90
63771;DHT22;60282;43.862;18.430;2022-10-16T03:34:50;7.50;99.90
63771;DHT22;60282;43.862;18.430;2022-10-16T03:37:16;4.40;99.90
63771;DHT22;60282;43.862;18.430;2022-10-16T03:39:41;7.60;99.90
63771;DHT22;60282;43.862;18.430;2022-10-16T03:42:15;7.60;99.90
63771;DHT22;60282;43.862;18.430;2022-10-16T03:44:41;7.70;99.90
63771;DHT22;60282;43.862;18.430;2022-10-16T03:47:06;7.70;99.90
63771;DHT22;60282;43.862;18.430;2022-10-16T03:49:32;7.60;99.90
63771;DHT22;60282;43.862;18.430;2022-10-16T03:51:58;7.60;99.90
63771;DHT22;60282;43.862;18.430;2022-10-16T03:54:43;7.60;99.90
63771;DHT22;60282;43.862;18.430;2022-10-16T03:57:13;7.70;99.90
63771;DHT22;60282;43.862;18.430;2022-10-16T03:59:46;7.60;99.90
63771;DHT22;60282;43.862;18.430;2022-10-16T04:02:12;7.60;99.90
63771;DHT22;60282;43.862;18.430;2022-10-16T04:04:59;7.50;99.90
63771;DHT22;60282;43.862;18.430;2022-10-16T04:07:45;7.50;99.90
63771;DHT22;60282;43.862;18.430;2022-10-16T04:10:31;7.50;99.90
63771;DHT22;60282;43.862;18.430;2022-10-16T04:13:13;7.40;99.90
63771;DHT22;60282;43.862;18.430;2022-10-16T04:15:42;7.80;99.90
63771;DHT22;60282;43.862;18.430;2022-10-16T04:18:07;7.30;99.90
63771;DHT22;60282;43.862;18.430;2022-10-16T04:20:36;5.80;99.90
63771;DHT22;60282;43.862;18.430;2022-10-16T04:23:02;7.30;99.90
63771;DHT22;60282;43.862;18.430;2022-10-16T04:25:28;7.30;99.90
63771;DHT22;60282;43.862;18.430;2022-10-16T04:27:56;7.30;99.90
63771;DHT22;60282;43.862;18.430;2022-10-16T04:30:28;7.30;99.90
63771;DHT22;60282;43.862;18.430;2022-10-16T04:32:57;7.30;99.90
63771;DHT22;60282;43.862;18.430;2022-10-16T04:35:23;7.30;99.90
63771;DHT22;60282;43.862;18.430;2022-10-16T04:37:56;7.30;99.90
63771;DHT22;60282;43.862;18.430;2022-10-16T04:40:57;7.30;99.90
63771;DHT22;60282;43.862;18.430;2022-10-16T04:43:23;7.30;99.90
63771;DHT22;60282;43.862;18.430;2022-10-16T04:45:50;7.40;99.90
63771;DHT22;60282;43.862;18.430;2022-10-16T04:48:22;7.30;99.90
63771;DHT22;60282;43.862;18.430;2022-10-16T04:50:48;7.30;99.90
63771;DHT22;60282;43.862;18.430;2022-10-16T04:53:15;8.90;99.90
63771;DHT22;60282;43.862;18.430;2022-10-16T04:55:43;7.30;99.90
63771;DHT22;60282;43.862;18.430;2022-10-16T04:58:09;7.30;99.90
63771;DHT22;60282;43.862;18.430;2022-10-16T05:00:37;7.20;99.90
63771;DHT22;60282;43.862;18.430;2022-10-16T05:03:04;7.20;99.90
63771;DHT22;60282;43.862;18.430;2022-10-16T05:05:36;6.80;99.90
63771;DHT22;60282;43.862;18.430;2022-10-16T05:08:05;7.20;99.90
63771;DHT22;60282;43.862;18.430;2022-10-16T05:10:33;7.20;99.90
63771;DHT22;60282;43.862;18.430;2022-10-16T05:13:18;7.20;99.90
63771;DHT22;60282;43.862;18.430;2022-10-16T05:16:09;7.20;99.90
63771;DHT22;60282;43.862;18.430;2022-10-16T05:21:33;7.10;99.90
63771;DHT22;60282;43.862;18.430;2022-10-16T05:23:59;7.10;99.90
63771;DHT22;60282;43.862;18.430;2022-10-16T05:26:24;7.20;99.90
63771;DHT22;60282;43.862;18.430;2022-10-16T05:28:56;7.20;99.90
63771;DHT22;60282;43.862;18.430;2022-10-16T05:31:22;7.30;99.90
63771;DHT22;60282;43.862;18.430;2022-10-16T05:33:49;7.30;99.90
63771;DHT22;60282;43.862;18.430;2022-10-16T05:36:21;7.30;99.90
63771;DHT22;60282;43.862;18.430;2022-10-16T05:39:06;7.30;99.90
63771;DHT22;60282;43.862;18.430;2022-10-16T05:41:33;7.30;99.90
63771;DHT22;60282;43.862;18.430;2022-10-16T05:44:03;7.30;99.90
63771;DHT22;60282;43.862;18.430;2022-10-16T05:46:29;7.50;99.90
63771;DHT22;60282;43.862;18.430;2022-10-16T05:48:59;7.40;99.90
63771;DHT22;60282;43.862;18.430;2022-10-16T05:52:02;7.50;99.90
63771;DHT22;60282;43.862;18.430;2022-10-16T05:57:28;7.60;99.90
63771;DHT22;60282;43.862;18.430;2022-10-16T05:59:54;7.70;99.90
63771;DHT22;60282;43.862;18.430;2022-10-16T06:02:20;7.70;99.90
63771;DHT22;60282;43.862;18.430;2022-10-16T06:04:46;7.70;99.90
63771;DHT22;60282;43.862;18.430;2022-10-16T06:07:11;7.80;99.90
63771;DHT22;60282;43.862;18.430;2022-10-16T06:09:37;7.80;99.90
63771;DHT22;60282;43.862;18.430;2022-10-16T06:12:04;7.90;99.90
63771;DHT22;60282;43.862;18.430;2022-10-16T06:14:35;8.00;99.90
63771;DHT22;60282;43.862;18.430;2022-10-16T06:17:00;8.10;99.90
63771;DHT22;60282;43.862;18.430;2022-10-16T06:19:31;8.20;99.90
63771;DHT22;60282;43.862;18.430;2022-10-16T06:21:59;8.30;99.90
63771;DHT22;60282;43.862;18.430;2022-10-16T06:24:26;8.40;99.90
63771;DHT22;60282;43.862;18.430;2022-10-16T06:26:55;8.50;99.90
63771;DHT22;60282;43.862;18.430;2022-10-16T06:29:22;8.50;99.90
63771;DHT22;60282;43.862;18.430;2022-10-16T06:31:48;8.50;99.90
63771;DHT22;60282;43.862;18.430;2022-10-16T06:34:14;8.60;99.90
63771;DHT22;60282;43.862;18.430;2022-10-16T06:36:40;8.80;99.90
63771;DHT22;60282;43.862;18.430;2022-10-16T06:39:06;8.80;99.90
63771;DHT22;60282;43.862;18.430;2022-10-16T06:41:33;8.90;99.90
63771;DHT22;60282;43.862;18.430;2022-10-16T06:43:59;9.00;99.90
63771;DHT22;60282;43.862;18.430;2022-10-16T06:46:26;9.00;99.90
63771;DHT22;60282;43.862;18.430;2022-10-16T06:48:53;9.10;99.90
63771;DHT22;60282;43.862;18.430;2022-10-16T06:51:23;9.20;99.90
63771;DHT22;60282;43.862;18.430;2022-10-16T06:53:51;9.10;99.90
63771;DHT22;60282;43.862;18.430;2022-10-16T06:56:26;9.20;99.90
63771;DHT22;60282;43.862;18.430;2022-10-16T06:59:04;9.30;99.90
63771;DHT22;60282;43.862;18.430;2022-10-16T07:01:43;9.40;99.90
63771;DHT22;60282;43.862;18.430;2022-10-16T07:04:10;9.50;99.90
63771;DHT22;60282;43.862;18.430;2022-10-16T07:06:40;9.50;99.90
63771;DHT22;60282;43.862;18.430;2022-10-16T07:09:09;9.60;99.90
63771;DHT22;60282;43.862;18.430;2022-10-16T07:11:37;9.70;99.90
63771;DHT22;60282;43.862;18.430;2022-10-16T07:14:03;9.90;99.90
63771;DHT22;60282;43.862;18.430;2022-10-16T07:16:31;9.90;99.90
63771;DHT22;60282;43.862;18.430;2022-10-16T07:18:58;10.00;99.90
63771;DHT22;60282;43.862;18.430;2022-10-16T07:21:45;10.20;99.90
63771;DHT22;60282;43.862;18.430;2022-10-16T07:24:14;10.30;99.90
63771;DHT22;60282;43.862;18.430;2022-10-16T07:26:41;10.40;99.90
63771;DHT22;60282;43.862;18.430;2022-10-16T07:29:21;10.60;99.90
63771;DHT22;60282;43.862;18.430;2022-10-16T07:31:51;8.10;99.90
63771;DHT22;60282;43.862;18.430;2022-10-16T07:34:20;10.80;99.90
63771;DHT22;60282;43.862;18.430;2022-10-16T07:36:50;11.00;99.90
63771;DHT22;60282;43.862;18.430;2022-10-16T07:39:21;11.10;99.90
63771;DHT22;60282;43.862;18.430;2022-10-16T07:41:50;11.30;99.90
63771;DHT22;60282;43.862;18.430;2022-10-16T07:44:39;11.50;99.90
63771;DHT22;60282;43.862;18.430;2022-10-16T07:47:08;11.60;99.90
63771;DHT22;60282;43.862;18.430;2022-10-16T07:50:00;11.50;99.90
63771;DHT22;60282;43.862;18.430;2022-10-16T07:52:30;11.70;99.90
63771;DHT22;60282;43.862;18.430;2022-10-16T07:54:56;11.80;99.90
63771;DHT22;60282;43.862;18.430;2022-10-16T07:57:22;12.00;99.90
63771;DHT22;60282;43.862;18.430;2022-10-16T07:59:47;12.20;99.90
63771;DHT22;60282;43.862;18.430;2022-10-16T08:02:13;12.40;99.90
63771;DHT22;60282;43.862;18.430;2022-10-16T08:04:39;12.50;99.90
63771;DHT22;60282;43.862;18.430;2022-10-16T08:07:07;12.70;99.90
63771;DHT22;60282;43.862;18.430;2022-10-16T08:09:34;12.50;99.90
63771;DHT22;60282;43.862;18.430;2022-10-16T08:12:02;12.60;99.90
63771;DHT22;60282;43.862;18.430;2022-10-16T08:14:28;12.80;99.90
63771;DHT22;60282;43.862;18.430;2022-10-16T08:16:54;12.90;99.90
63771;DHT22;60282;43.862;18.430;2022-10-16T08:19:20;13.10;99.90
63771;DHT22;60282;43.862;18.430;2022-10-16T08:21:48;13.20;99.90
63771;DHT22;60282;43.862;18.430;2022-10-16T08:24:14;13.40;99.90
63771;DHT22;60282;43.862;18.430;2022-10-16T08:26:40;13.50;99.90
63771;DHT22;60282;43.862;18.430;2022-10-16T08:29:06;13.60;99.90
63771;DHT22;60282;43.862;18.430;2022-10-16T09:01:39;15.20;99.90
63771;DHT22;60282;43.862;18.430;2022-10-16T09:04:42;15.40;99.90
63771;DHT22;60282;43.862;18.430;2022-10-16T09:07:19;12.40;99.90
63771;DHT22;60282;43.862;18.430;2022-10-16T09:09:54;15.60;99.90
63771;DHT22;60282;43.862;18.430;2022-10-16T09:12:54;15.70;99.90
63771;DHT22;60282;43.862;18.430;2022-10-16T09:15:43;15.60;99.90
63771;DHT22;60282;43.862;18.430;2022-10-16T09:18:15;15.80;99.90
63771;DHT22;60282;43.862;18.430;2022-10-16T09:21:05;16.00;99.90
63771;DHT22;60282;43.862;18.430;2022-10-16T09:23:35;15.90;99.90
63771;DHT22;60282;43.862;18.430;2022-10-16T09:26:03;16.00;99.90
63771;DHT22;60282;43.862;18.430;2022-10-16T09:28:30;16.00;99.90
63771;DHT22;60282;43.862;18.430;2022-10-16T09:30:57;15.90;99.90
63771;DHT22;60282;43.862;18.430;2022-10-16T09:33:25;16.10;99.90
63771;DHT22;60282;43.862;18.430;2022-10-16T09:35:55;16.30;99.90
63771;DHT22;60282;43.862;18.430;2022-10-16T09:38:32;16.20;99.90
63771;DHT22;60282;43.862;18.430;2022-10-16T09:41:13;16.40;99.90
63771;DHT22;60282;43.862;18.430;2022-10-16T09:43:46;16.60;99.90
63771;DHT22;60282;43.862;18.430;2022-10-16T09:46:43;16.90;99.90
63771;DHT22;60282;43.862;18.430;2022-10-16T09:49:23;17.10;99.90
63771;DHT22;60282;43.862;18.430;2022-10-16T09:51:49;17.30;99.50
63771;DHT22;60282;43.862;18.430;2022-10-16T09:54:17;17.50;98.80
63771;DHT22;60282;43.862;18.430;2022-10-16T09:56:44;17.60;98.80
63771;DHT22;60282;43.862;18.430;2022-10-16T09:59:23;17.70;99.20
63771;DHT22;60282;43.862;18.430;2022-10-16T10:01:51;17.70;98.20
63771;DHT22;60282;43.862;18.430;2022-10-16T10:04:21;17.90;97.70
63771;DHT22;60282;43.862;18.430;2022-10-16T10:06:53;18.10;97.30
63771;DHT22;60282;43.862;18.430;2022-10-16T10:09:32;18.20;96.60
63771;DHT22;60282;43.862;18.430;2022-10-16T10:12:03;18.30;96.50
63771;DHT22;60282;43.862;18.430;2022-10-16T10:14:38;18.40;96.30
63771;DHT22;60282;43.862;18.430;2022-10-16T10:19:39;18.50;96.10
63771;DHT22;60282;43.862;18.430;2022-10-16T10:28:24;19.00;94.70
63771;DHT22;60282;43.862;18.430;2022-10-16T10:39:50;19.60;92.60
63771;DHT22;60282;43.862;18.430;2022-10-16T10:45:25;19.30;91.70
63771;DHT22;60282;43.862;18.430;2022-10-16T10:50:49;20.10;91.30
63771;DHT22;60282;43.862;18.430;2022-10-16T10:56:28;20.20;90.80
63771;DHT22;60282;43.862;18.430;2022-10-16T10:59:07;20.40;90.70
63771;DHT22;60282;43.862;18.430;2022-10-16T11:04:28;20.90;91.20
63771;DHT22;60282;43.862;18.430;2022-10-16T11:07:02;21.00;89.70
63771;DHT22;60282;43.862;18.430;2022-10-16T11:09:42;21.10;88.10
63771;DHT22;60282;43.862;18.430;2022-10-16T11:12:29;21.20;88.50
63771;DHT22;60282;43.862;18.430;2022-10-16T11:17:40;21.50;85.10
63771;DHT22;60282;43.862;18.430;2022-10-16T11:20:41;21.70;87.50
63771;DHT22;60282;43.862;18.430;2022-10-16T11:23:20;21.90;85.90
63771;DHT22;60282;43.862;18.430;2022-10-16T11:25:49;22.10;85.80
63771;DHT22;60282;43.862;18.430;2022-10-16T11:28:16;22.10;84.90
63771;DHT22;60282;43.862;18.430;2022-10-16T11:31:11;22.30;83.30
63771;DHT22;60282;43.862;18.430;2022-10-16T11:34:08;22.40;83.70
63771;DHT22;60282;43.862;18.430;2022-10-16T11:36:45;22.70;82.90
63771;DHT22;60282;43.862;18.430;2022-10-16T11:39:29;22.80;80.70
63771;DHT22;60282;43.862;18.430;2022-10-16T11:47:25;22.70;79.50
63771;DHT22;60282;43.862;18.430;2022-10-16T11:49:59;22.90;79.20
63771;DHT22;60282;43.862;18.430;2022-10-16T11:52:38;23.10;78.20
63771;DHT22;60282;43.862;18.430;2022-10-16T11:55:15;23.20;78.10
63771;DHT22;60282;43.862;18.430;2022-10-16T11:57:49;23.30;77.40
63771;DHT22;60282;43.862;18.430;2022-10-16T12:00:22;23.60;77.30
63771;DHT22;60282;43.862;18.430;2022-10-16T12:15:41;24.40;74.00
63771;DHT22;60282;43.862;18.430;2022-10-16T12:18:24;24.30;75.30
63771;DHT22;60282;43.862;18.430;2022-10-16T12:20:57;24.40;73.80
63771;DHT22;60282;43.862;18.430;2022-10-16T12:23:24;24.50;73.50
63771;DHT22;60282;43.862;18.430;2022-10-16T12:25:55;24.50;73.00
63771;DHT22;60282;43.862;18.430;2022-10-16T12:28:27;24.60;73.00
63771;DHT22;60282;43.862;18.430;2022-10-16T12:30:58;24.70;72.70
63771;DHT22;60282;43.862;18.430;2022-10-16T12:35:52;25.10;72.40
63771;DHT22;60282;43.862;18.430;2022-10-16T12:38:26;25.30;70.80
63771;DHT22;60282;43.862;18.430;2022-10-16T12:41:01;25.50;69.90
63771;DHT22;60282;43.862;18.430;2022-10-16T12:43:42;25.40;69.20
63771;DHT22;60282;43.862;18.430;2022-10-16T12:48:34;25.70;69.00
63771;DHT22;60282;43.862;18.430;2022-10-16T12:53:36;25.80;68.90
63771;DHT22;60282;43.862;18.430;2022-10-16T12:56:16;26.00;68.40
63771;DHT22;60282;43.862;18.430;2022-10-16T13:08:29;26.20;67.00
63771;DHT22;60282;43.862;18.430;2022-10-16T13:14:09;26.60;65.60
63771;DHT22;60282;43.862;18.430;2022-10-16T13:32:15;27.30;63.40
63771;DHT22;60282;43.862;18.430;2022-10-16T13:34:46;27.30;63.90
63771;DHT22;60282;43.862;18.430;2022-10-16T13:37:18;27.40;63.20
63771;DHT22;60282;43.862;18.430;2022-10-16T13:42:26;27.70;62.70
63771;DHT22;60282;43.862;18.430;2022-10-16T13:44:54;27.80;63.30
63771;DHT22;60282;43.862;18.430;2022-10-16T13:47:23;28.00;62.90
63771;DHT22;60282;43.862;18.430;2022-10-16T13:50:04;28.00;61.60
63771;DHT22;60282;43.862;18.430;2022-10-16T13:52:31;28.20;61.60
63771;DHT22;60282;43.862;18.430;2022-10-16T13:54:57;28.30;61.40
63771;DHT22;60282;43.862;18.430;2022-10-16T13:57:24;28.40;60.80
63771;DHT22;60282;43.862;18.430;2022-10-16T13:59:50;28.30;61.20
63771;DHT22;60282;43.862;18.430;2022-10-16T14:17:53;29.50;59.30
63771;DHT22;60282;43.862;18.430;2022-10-16T14:20:26;29.30;58.90
63771;DHT22;60282;43.862;18.430;2022-10-16T14:25:28;29.60;57.80
63771;DHT22;60282;43.862;18.430;2022-10-16T14:28:13;29.50;57.50
63771;DHT22;60282;43.862;18.430;2022-10-16T14:30:53;29.50;57.40
63771;DHT22;60282;43.862;18.430;2022-10-16T14:33:23;29.60;56.90
63771;DHT22;60282;43.862;18.430;2022-10-16T14:36:05;29.40;56.70
63771;DHT22;60282;43.862;18.430;2022-10-16T14:38:32;29.50;56.60
63771;DHT22;60282;43.862;18.430;2022-10-16T14:40:59;29.60;56.50
63771;DHT22;60282;43.862;18.430;2022-10-16T14:46:02;29.60;57.20
63771;DHT22;60282;43.862;18.430;2022-10-16T14:48:29;29.60;57.80
63771;DHT22;60282;43.862;18.430;2022-10-16T14:50:55;29.70;57.90
63771;DHT22;60282;43.862;18.430;2022-10-16T14:53:21;29.80;57.70
63771;DHT22;60282;43.862;18.430;2022-10-16T14:55:47;30.50;58.90
63771;DHT22;60282;43.862;18.430;2022-10-16T14:58:20;29.40;58.50
63771;DHT22;60282;43.862;18.430;2022-10-16T15:00:46;29.30;59.70
63771;DHT22;60282;43.862;18.430;2022-10-16T15:03:14;29.10;59.10
63771;DHT22;60282;43.862;18.430;2022-10-16T15:05:39;28.90;59.50
63771;DHT22;60282;43.862;18.430;2022-10-16T15:08:05;28.50;60.00
63771;DHT22;60282;43.862;18.430;2022-10-16T15:10:35;28.20;60.40
63771;DHT22;60282;43.862;18.430;2022-10-16T15:13:02;28.30;61.00
63771;DHT22;60282;43.862;18.430;2022-10-16T15:15:37;27.80;62.90
63771;DHT22;60282;43.862;18.430;2022-10-16T15:18:04;27.70;63.80
63771;DHT22;60282;43.862;18.430;2022-10-16T15:20:34;27.50;64.60
63771;DHT22;60282;43.862;18.430;2022-10-16T15:23:02;27.30;64.40
63771;DHT22;60282;43.862;18.430;2022-10-16T15:25:41;27.10;65.00
63771;DHT22;60282;43.862;18.430;2022-10-16T15:28:08;26.80;65.50
63771;DHT22;60282;43.862;18.430;2022-10-16T15:30:34;26.50;66.10
63771;DHT22;60282;43.862;18.430;2022-10-16T15:33:01;26.20;66.80
63771;DHT22;60282;43.862;18.430;2022-10-16T15:35:27;25.60;68.00
63771;DHT22;60282;43.862;18.430;2022-10-16T15:37:53;25.20;69.60
63771;DHT22;60282;43.862;18.430;2022-10-16T15:40:20;24.70;70.60
63771;DHT22;60282;43.862;18.430;2022-10-16T15:42:46;24.20;71.50
63771;DHT22;60282;43.862;18.430;2022-10-16T15:45:12;23.70;73.20
63771;DHT22;60282;43.862;18.430;2022-10-16T15:47:40;23.20;74.50
63771;DHT22;60282;43.862;18.430;2022-10-16T15:50:06;22.80;76.80
63771;DHT22;60282;43.862;18.430;2022-10-16T15:52:33;22.30;77.50
63771;DHT22;60282;43.862;18.430;2022-10-16T15:54:59;21.90;79.10
63771;DHT22;60282;43.862;18.430;2022-10-16T15:57:28;21.50;81.50
63771;DHT22;60282;43.862;18.430;2022-10-16T15:59:54;20.90;83.70
63771;DHT22;60282;43.862;18.430;2022-10-16T16:02:20;20.60;86.30
63771;DHT22;60282;43.862;18.430;2022-10-16T16:04:46;20.20;89.50
63771;DHT22;60282;43.862;18.430;2022-10-16T16:07:12;19.80;92.10
63771;DHT22;60282;43.862;18.430;2022-10-16T16:09:38;19.50;94.90
63771;DHT22;60282;43.862;18.430;2022-10-16T16:12:03;19.20;97.10
63771;DHT22;60282;43.862;18.430;2022-10-16T16:14:29;18.90;99.20
63771;DHT22;60282;43.862;18.430;2022-10-16T16:16:56;18.70;99.90
63771;DHT22;60282;43.862;18.430;2022-10-16T16:19:22;18.40;99.90
63771;DHT22;60282;43.862;18.430;2022-10-16T16:21:50;18.20;99.90
63771;DHT22;60282;43.862;18.430;2022-10-16T16:24:16;17.90;99.90
63771;DHT22;60282;43.862;18.430;2022-10-16T16:32:18;17.00;99.90
63771;DHT22;60282;43.862;18.430;2022-10-16T16:34:44;17.10;99.90
63771;DHT22;60282;43.862;18.430;2022-10-16T16:37:09;17.00;99.90
63771;DHT22;60282;43.862;18.430;2022-10-16T16:39:36;16.70;99.90
63771;DHT22;60282;43.862;18.430;2022-10-16T16:42:02;16.50;99.90
63771;DHT22;60282;43.862;18.430;2022-10-16T16:44:29;16.40;99.90
63771;DHT22;60282;43.862;18.430;2022-10-16T16:46:55;16.30;99.90
63771;DHT22;60282;43.862;18.430;2022-10-16T16:49:21;16.20;99.90
63771;DHT22;60282;43.862;18.430;2022-10-16T16:51:47;16.20;99.90
63771;DHT22;60282;43.862;18.430;2022-10-16T16:54:13;16.10;99.90
63771;DHT22;60282;43.862;18.430;2022-10-16T16:56:40;16.10;99.90
63771;DHT22;60282;43.862;18.430;2022-10-16T16:59:16;16.00;99.90
63771;DHT22;60282;43.862;18.430;2022-10-16T17:01:43;16.00;99.90
63771;DHT22;60282;43.862;18.430;2022-10-16T17:04:09;15.90;99.90
63771;DHT22;60282;43.862;18.430;2022-10-16T17:06:36;15.90;99.90
63771;DHT22;60282;43.862;18.430;2022-10-16T17:09:03;15.80;99.90
63771;DHT22;60282;43.862;18.430;2022-10-16T17:11:29;15.80;99.90
63771;DHT22;60282;43.862;18.430;2022-10-16T17:13:57;16.10;99.90
63771;DHT22;60282;43.862;18.430;2022-10-16T17:16:26;15.70;99.90
63771;DHT22;60282;43.862;18.430;2022-10-16T17:18:53;15.60;99.90
63771;DHT22;60282;43.862;18.430;2022-10-16T17:21:21;15.90;99.90
63771;DHT22;60282;43.862;18.430;2022-10-16T17:23:47;15.50;99.90
63771;DHT22;60282;43.862;18.430;2022-10-16T17:26:16;15.40;99.90
63771;DHT22;60282;43.862;18.430;2022-10-16T17:28:43;15.40;99.90
63771;DHT22;60282;43.862;18.430;2022-10-16T17:31:14;15.40;99.90
63771;DHT22;60282;43.862;18.430;2022-10-16T17:33:41;16.30;99.90
63771;DHT22;60282;43.862;18.430;2022-10-16T17:36:07;15.50;99.90
63771;DHT22;60282;43.862;18.430;2022-10-16T17:38:34;15.60;99.90
63771;DHT22;60282;43.862;18.430;2022-10-16T17:41:12;15.60;99.90
63771;DHT22;60282;43.862;18.430;2022-10-16T17:43:39;15.60;99.90
63771;DHT22;60282;43.862;18.430;2022-10-16T17:46:06;15.50;99.90
63771;DHT22;60282;43.862;18.430;2022-10-16T17:48:35;15.50;99.90
63771;DHT22;60282;43.862;18.430;2022-10-16T17:51:06;15.40;99.90
63771;DHT22;60282;43.862;18.430;2022-10-16T17:53:33;16.60;99.90
63771;DHT22;60282;43.862;18.430;2022-10-16T17:56:04;15.20;99.90
63771;DHT22;60282;43.862;18.430;2022-10-16T17:58:30;15.10;99.90
63771;DHT22;60282;43.862;18.430;2022-10-16T18:00:59;15.00;99.90
63771;DHT22;60282;43.862;18.430;2022-10-16T18:03:25;15.00;99.90
63771;DHT22;60282;43.862;18.430;2022-10-16T18:05:52;15.00;99.90
63771;DHT22;60282;43.862;18.430;2022-10-16T18:08:22;14.90;99.90
63771;DHT22;60282;43.862;18.430;2022-10-16T18:10:49;15.00;99.90
63771;DHT22;60282;43.862;18.430;2022-10-16T18:13:16;15.00;99.90
63771;DHT22;60282;43.862;18.430;2022-10-16T18:15:45;14.90;99.90
63771;DHT22;60282;43.862;18.430;2022-10-16T18:18:10;14.10;99.90
63771;DHT22;60282;43.862;18.430;2022-10-16T18:23:33;14.70;99.90
63771;DHT22;60282;43.862;18.430;2022-10-16T18:25:59;14.60;99.90
63771;DHT22;60282;43.862;18.430;2022-10-16T18:28:25;14.70;99.90
63771;DHT22;60282;43.862;18.430;2022-10-16T18:34:17;15.30;99.90
63771;DHT22;60282;43.862;18.430;2022-10-16T18:36:44;14.50;99.90
63771;DHT22;60282;43.862;18.430;2022-10-16T18:39:10;14.50;99.90
63771;DHT22;60282;43.862;18.430;2022-10-16T18:41:38;14.50;99.90
63771;DHT22;60282;43.862;18.430;2022-10-16T18:44:05;14.40;99.90
63771;DHT22;60282;43.862;18.430;2022-10-16T18:46:31;14.30;99.90
63771;DHT22;60282;43.862;18.430;2022-10-16T18:49:09;14.30;99.90
63771;DHT22;60282;43.862;18.430;2022-10-16T19:05:48;12.30;99.90